sensor_id;sensor_type;location;lat;lon;timestamp;temperature;humidity
22698;DHT22;11516;51.612;7.510;2023-04-25T00:02:01;6.90;99.90
22698;DHT22;11516;51.612;7.510;2023-04-25T00:04:28;6.90;99.90
22698;DHT22;11516;51.612;7.510;2023-04-25T00:06:55;6.90;99.90
22698;DHT22;11516;51.612;7.510;2023-04-25T00:09:21;6.90;99.90
22698;DHT22;11516;51.612;7.510;2023-04-25T00:11:47;7.00;99.90
22698;DHT22;11516;51.612;7.510;2023-04-25T00:14:12;7.00;99.90
22698;DHT22;11516;51.612;7.510;2023-04-25T00:16:38;7.10;99.90
22698;DHT22;11516;51.612;7.510;2023-04-25T00:19:04;7.00;99.90
22698;DHT22;11516;51.612;7.510;2023-04-25T00:21:30;7.00;99.90
22698;DHT22;11516;51.612;7.510;2023-04-25T00:23:57;7.10;99.90
22698;DHT22;11516;51.612;7.510;2023-04-25T00:26:22;7.10;99.90
22698;DHT22;11516;51.612;7.510;2023-04-25T00:28:48;7.20;99.90
22698;DHT22;11516;51.612;7.510;2023-04-25T00:31:14;7.20;99.90
22698;DHT22;11516;51.612;7.510;2023-04-25T00:33:39;7.20;99.90
22698;DHT22;11516;51.612;7.510;2023-04-25T00:36:05;7.30;99.90
22698;DHT22;11516;51.612;7.510;2023-04-25T00:38:31;7.20;99.90
22698;DHT22;11516;51.612;7.510;2023-04-25T00:40:57;7.20;99.90
22698;DHT22;11516;51.612;7.510;2023-04-25T00:43:26;7.20;99.90
22698;DHT22;11516;51.612;7.510;2023-04-25T00:45:52;7.20;99.90
22698;DHT22;11516;51.612;7.510;2023-04-25T00:48:20;7.20;99.90
22698;DHT22;11516;51.612;7.510;2023-04-25T00:50:53;7.20;99.90
22698;DHT22;11516;51.612;7.510;2023-04-25T00:53:23;7.20;99.90
22698;DHT22;11516;51.612;7.510;2023-04-25T00:55:49;7.20;99.90
22698;DHT22;11516;51.612;7.510;2023-04-25T00:58:17;7.20;99.90
22698;DHT22;11516;51.612;7.510;2023-04-25T01:00:43;7.30;99.90
22698;DHT22;11516;51.612;7.510;2023-04-25T01:03:09;7.30;99.90
22698;DHT22;11516;51.612;7.510;2023-04-25T01:05:35;7.20;99.90
22698;DHT22;11516;51.612;7.510;2023-04-25T01:08:01;7.20;99.90
22698;DHT22;11516;51.612;7.510;2023-04-25T01:10:26;7.20;99.90
22698;DHT22;11516;51.612;7.510;2023-04-25T01:12:52;7.30;99.90
22698;DHT22;11516;51.612;7.510;2023-04-25T01:15:18;7.40;99.90
22698;DHT22;11516;51.612;7.510;2023-04-25T01:17:43;7.40;99.90
22698;DHT22;11516;51.612;7.510;2023-04-25T01:20:11;7.30;99.90
22698;DHT22;11516;51.612;7.510;2023-04-25T01:22:36;7.30;99.90
22698;DHT22;11516;51.612;7.510;2023-04-25T01:25:03;7.30;99.90
22698;DHT22;11516;51.612;7.510;2023-04-25T01:27:29;7.30;99.90
22698;DHT22;11516;51.612;7.510;2023-04-25T01:29:56;7.20;99.90
22698;DHT22;11516;51.612;7.510;2023-04-25T01:32:23;7.30;99.90
22698;DHT22;11516;51.612;7.510;2023-04-25T01:34:49;7.30;99.90
22698;DHT22;11516;51.612;7.510;2023-04-25T01:37:16;7.30;99.90
22698;DHT22;11516;51.612;7.510;2023-04-25T01:39:42;7.30;99.90
22698;DHT22;11516;51.612;7.510;2023-04-25T01:42:08;7.40;99.90
22698;DHT22;11516;51.612;7.510;2023-04-25T01:44:33;7.40;99.90
22698;DHT22;11516;51.612;7.510;2023-04-25T01:46:59;7.40;99.90
22698;DHT22;11516;51.612;7.510;2023-04-25T01:49:24;7.30;99.90
22698;DHT22;11516;51.612;7.510;2023-04-25T01:51:50;7.30;99.90
22698;DHT22;11516;51.612;7.510;2023-04-25T01:54:16;7.30;99.90
22698;DHT22;11516;51.612;7.510;2023-04-25T01:56:42;7.20;99.90
22698;DHT22;11516;51.612;7.510;2023-04-25T01:59:07;7.20;99.90
22698;DHT22;11516;51.612;7.510;2023-04-25T02:01:33;7.20;99.90
22698;DHT22;11516;51.612;7.510;2023-04-25T02:03:58;7.10;99.90
22698;DHT22;11516;51.612;7.510;2023-04-25T02:06:24;7.10;99.90
22698;DHT22;11516;51.612;7.510;2023-04-25T02:08:50;7.10;99.90
22698;DHT22;11516;51.612;7.510;2023-04-25T02:11:15;7.10;99.90
22698;DHT22;11516;51.612;7.510;2023-04-25T02:13:41;7.10;99.90
22698;DHT22;11516;51.612;7.510;2023-04-25T02:16:06;7.10;99.90
22698;DHT22;11516;51.612;7.510;2023-04-25T02:18:32;7.10;99.90
22698;DHT22;11516;51.612;7.510;2023-04-25T02:20:59;7.10;99.90
22698;DHT22;11516;51.612;7.510;2023-04-25T02:23:26;7.10;99.90
22698;DHT22;11516;51.612;7.510;2023-04-25T02:25:53;7.10;99.90
22698;DHT22;11516;51.612;7.510;2023-04-25T02:28:20;7.10;99.90
22698;DHT22;11516;51.612;7.510;2023-04-25T02:30:46;7.20;99.90
22698;DHT22;11516;51.612;7.510;2023-04-25T02:33:11;7.10;99.90
22698;DHT22;11516;51.612;7.510;2023-04-25T02:35:37;7.10;99.90
22698;DHT22;11516;51.612;7.510;2023-04-25T02:38:02;7.10;99.90
22698;DHT22;11516;51.612;7.510;2023-04-25T02:40:28;7.10;99.90
22698;DHT22;11516;51.612;7.510;2023-04-25T02:42:53;7.10;99.90
22698;DHT22;11516;51.612;7.510;2023-04-25T02:45:19;7.10;99.90
22698;DHT22;11516;51.612;7.510;2023-04-25T02:47:44;7.10;99.90
22698;DHT22;11516;51.612;7.510;2023-04-25T02:50:10;7.10;99.90
22698;DHT22;11516;51.612;7.510;2023-04-25T02:52:35;7.10;99.90
22698;DHT22;11516;51.612;7.510;2023-04-25T02:55:01;7.10;99.90
22698;DHT22;11516;51.612;7.510;2023-04-25T02:57:26;7.20;99.90
22698;DHT22;11516;51.612;7.510;2023-04-25T02:59:52;7.10;99.90
22698;DHT22;11516;51.612;7.510;2023-04-25T03:02:17;7.10;99.90
22698;DHT22;11516;51.612;7.510;2023-04-25T03:04:43;7.10;99.90
22698;DHT22;11516;51.612;7.510;2023-04-25T03:07:08;7.10;99.90
22698;DHT22;11516;51.612;7.510;2023-04-25T03:09:34;7.10;99.90
22698;DHT22;11516;51.612;7.510;2023-04-25T03:12:00;7.00;99.90
22698;DHT22;11516;51.612;7.510;2023-04-25T03:14:26;7.10;99.90
22698;DHT22;11516;51.612;7.510;2023-04-25T03:16:52;7.10;99.90
22698;DHT22;11516;51.612;7.510;2023-04-25T03:19:17;7.10;99.90
22698;DHT22;11516;51.612;7.510;2023-04-25T03:21:43;7.10;99.90
22698;DHT22;11516;51.612;7.510;2023-04-25T03:24:09;7.10;99.90
22698;DHT22;11516;51.612;7.510;2023-04-25T03:26:36;7.00;99.90
22698;DHT22;11516;51.612;7.510;2023-04-25T03:29:01;7.00;99.90
22698;DHT22;11516;51.612;7.510;2023-04-25T03:31:27;7.00;99.90
22698;DHT22;11516;51.612;7.510;2023-04-25T03:33:52;7.10;99.90
22698;DHT22;11516;51.612;7.510;2023-04-25T03:36:18;7.00;99.90
22698;DHT22;11516;51.612;7.510;2023-04-25T03:38:43;7.10;99.90
22698;DHT22;11516;51.612;7.510;2023-04-25T03:41:09;7.10;99.90
22698;DHT22;11516;51.612;7.510;2023-04-25T03:43:35;7.00;99.90
22698;DHT22;11516;51.612;7.510;2023-04-25T03:46:00;7.10;99.90
22698;DHT22;11516;51.612;7.510;2023-04-25T03:48:26;7.00;99.90
22698;DHT22;11516;51.612;7.510;2023-04-25T03:50:53;7.00;99.90
22698;DHT22;11516;51.612;7.510;2023-04-25T03:53:18;7.00;99.90
22698;DHT22;11516;51.612;7.510;2023-04-25T03:55:44;7.00;99.90
22698;DHT22;11516;51.612;7.510;2023-04-25T03:58:09;7.00;99.90
22698;DHT22;11516;51.612;7.510;2023-04-25T04:00:35;7.00;99.90
22698;DHT22;11516;51.612;7.510;2023-04-25T04:03:01;7.00;99.90
22698;DHT22;11516;51.612;7.510;2023-04-25T04:05:27;6.90;99.90
22698;DHT22;11516;51.612;7.510;2023-04-25T04:07:54;7.00;99.90
22698;DHT22;11516;51.612;7.510;2023-04-25T04:10:19;7.00;99.90
22698;DHT22;11516;51.612;7.510;2023-04-25T04:12:45;6.90;99.90
22698;DHT22;11516;51.612;7.510;2023-04-25T04:15:11;6.90;99.90
22698;DHT22;11516;51.612;7.510;2023-04-25T04:17:37;7.00;99.90
22698;DHT22;11516;51.612;7.510;2023-04-25T04:20:03;7.00;99.90
22698;DHT22;11516;51.612;7.510;2023-04-25T04:22:29;7.00;99.90
22698;DHT22;11516;51.612;7.510;2023-04-25T04:24:54;7.00;99.90
22698;DHT22;11516;51.612;7.510;2023-04-25T04:27:22;7.00;99.90
22698;DHT22;11516;51.612;7.510;2023-04-25T04:29:48;7.00;99.90
22698;DHT22;11516;51.612;7.510;2023-04-25T04:32:15;6.90;99.90
22698;DHT22;11516;51.612;7.510;2023-04-25T04:34:41;6.80;99.90
22698;DHT22;11516;51.612;7.510;2023-04-25T04:37:07;6.80;99.90
22698;DHT22;11516;51.612;7.510;2023-04-25T04:39:36;6.80;99.90
22698;DHT22;11516;51.612;7.510;2023-04-25T04:42:02;6.80;99.90
22698;DHT22;11516;51.612;7.510;2023-04-25T04:44:29;6.80;99.90
22698;DHT22;11516;51.612;7.510;2023-04-25T04:46:54;6.80;99.90
22698;DHT22;11516;51.612;7.510;2023-04-25T04:49:20;6.90;99.90
22698;DHT22;11516;51.612;7.510;2023-04-25T04:51:46;7.00;99.90
22698;DHT22;11516;51.612;7.510;2023-04-25T04:54:12;6.90;99.90
22698;DHT22;11516;51.612;7.510;2023-04-25T04:56:38;6.90;99.90
22698;DHT22;11516;51.612;7.510;2023-04-25T04:59:03;7.00;99.90
22698;DHT22;11516;51.612;7.510;2023-04-25T05:01:29;7.00;99.90
22698;DHT22;11516;51.612;7.510;2023-04-25T05:03:57;6.90;99.90
22698;DHT22;11516;51.612;7.510;2023-04-25T05:06:26;6.80;99.90
22698;DHT22;11516;51.612;7.510;2023-04-25T05:08:52;6.80;99.90
22698;DHT22;11516;51.612;7.510;2023-04-25T05:11:18;6.80;99.90
22698;DHT22;11516;51.612;7.510;2023-04-25T05:13:44;6.80;99.90
22698;DHT22;11516;51.612;7.510;2023-04-25T05:16:11;6.80;99.90
22698;DHT22;11516;51.612;7.510;2023-04-25T05:18:37;6.90;99.90
22698;DHT22;11516;51.612;7.510;2023-04-25T05:21:03;6.90;99.90
22698;DHT22;11516;51.612;7.510;2023-04-25T05:23:28;6.90;99.90
22698;DHT22;11516;51.612;7.510;2023-04-25T05:25:55;6.90;99.90
22698;DHT22;11516;51.612;7.510;2023-04-25T05:28:21;6.80;99.90
22698;DHT22;11516;51.612;7.510;2023-04-25T05:30:46;6.80;99.90
22698;DHT22;11516;51.612;7.510;2023-04-25T05:33:12;6.70;99.90
22698;DHT22;11516;51.612;7.510;2023-04-25T05:35:38;6.70;99.90
22698;DHT22;11516;51.612;7.510;2023-04-25T05:38:03;6.70;99.90
22698;DHT22;11516;51.612;7.510;2023-04-25T05:40:29;6.80;99.90
22698;DHT22;11516;51.612;7.510;2023-04-25T05:42:54;6.90;99.90
22698;DHT22;11516;51.612;7.510;2023-04-25T05:45:20;6.90;99.90
22698;DHT22;11516;51.612;7.510;2023-04-25T05:47:46;7.00;99.90
22698;DHT22;11516;51.612;7.510;2023-04-25T05:50:11;7.10;99.90
22698;DHT22;11516;51.612;7.510;2023-04-25T05:52:37;7.10;99.90
22698;DHT22;11516;51.612;7.510;2023-04-25T05:55:02;7.20;99.90
22698;DHT22;11516;51.612;7.510;2023-04-25T05:57:28;7.30;99.90
22698;DHT22;11516;51.612;7.510;2023-04-25T05:59:53;7.10;99.90
22698;DHT22;11516;51.612;7.510;2023-04-25T06:02:20;7.00;99.90
22698;DHT22;11516;51.612;7.510;2023-04-25T06:04:46;7.10;99.90
22698;DHT22;11516;51.612;7.510;2023-04-25T06:07:12;7.20;99.90
22698;DHT22;11516;51.612;7.510;2023-04-25T06:09:38;7.20;99.90
22698;DHT22;11516;51.612;7.510;2023-04-25T06:12:05;7.30;99.90
22698;DHT22;11516;51.612;7.510;2023-04-25T06:14:31;7.30;99.90
22698;DHT22;11516;51.612;7.510;2023-04-25T06:16:56;7.30;99.90
22698;DHT22;11516;51.612;7.510;2023-04-25T06:19:22;7.40;99.90
22698;DHT22;11516;51.612;7.510;2023-04-25T06:21:47;7.40;99.90
22698;DHT22;11516;51.612;7.510;2023-04-25T06:24:13;7.40;99.90
22698;DHT22;11516;51.612;7.510;2023-04-25T06:26:39;7.40;99.90
22698;DHT22;11516;51.612;7.510;2023-04-25T06:29:04;7.40;99.90
22698;DHT22;11516;51.612;7.510;2023-04-25T06:31:30;7.40;99.90
22698;DHT22;11516;51.612;7.510;2023-04-25T06:33:58;7.30;99.90
22698;DHT22;11516;51.612;7.510;2023-04-25T06:36:23;7.40;99.90
22698;DHT22;11516;51.612;7.510;2023-04-25T06:38:53;7.50;99.90
22698;DHT22;11516;51.612;7.510;2023-04-25T06:41:20;7.60;99.90
22698;DHT22;11516;51.612;7.510;2023-04-25T06:43:45;7.60;99.90
22698;DHT22;11516;51.612;7.510;2023-04-25T06:46:11;7.70;99.90
22698;DHT22;11516;51.612;7.510;2023-04-25T06:48:36;7.80;99.90
22698;DHT22;11516;51.612;7.510;2023-04-25T06:51:02;7.90;99.90
22698;DHT22;11516;51.612;7.510;2023-04-25T06:53:28;7.90;99.90
22698;DHT22;11516;51.612;7.510;2023-04-25T06:55:53;8.00;99.90
22698;DHT22;11516;51.612;7.510;2023-04-25T06:58:19;8.00;99.90
22698;DHT22;11516;51.612;7.510;2023-04-25T07:00:45;8.20;99.90
22698;DHT22;11516;51.612;7.510;2023-04-25T07:03:10;8.10;99.90
22698;DHT22;11516;51.612;7.510;2023-04-25T07:05:36;7.80;99.90
22698;DHT22;11516;51.612;7.510;2023-04-25T07:08:01;7.90;99.90
22698;DHT22;11516;51.612;7.510;2023-04-25T07:10:28;8.00;99.90
22698;DHT22;11516;51.612;7.510;2023-04-25T07:12:53;8.30;99.90
22698;DHT22;11516;51.612;7.510;2023-04-25T07:15:19;8.20;99.90
22698;DHT22;11516;51.612;7.510;2023-04-25T07:17:45;8.30;99.90
22698;DHT22;11516;51.612;7.510;2023-04-25T07:20:11;8.20;99.90
22698;DHT22;11516;51.612;7.510;2023-04-25T07:22:36;8.20;99.90
22698;DHT22;11516;51.612;7.510;2023-04-25T07:25:02;8.30;99.90
22698;DHT22;11516;51.612;7.510;2023-04-25T07:27:29;8.10;99.90
22698;DHT22;11516;51.612;7.510;2023-04-25T07:29:54;8.10;99.90
22698;DHT22;11516;51.612;7.510;2023-04-25T07:32:20;8.10;99.90
22698;DHT22;11516;51.612;7.510;2023-04-25T07:34:45;8.20;99.90
22698;DHT22;11516;51.612;7.510;2023-04-25T07:37:11;8.50;99.90
22698;DHT22;11516;51.612;7.510;2023-04-25T07:39:37;8.60;99.90
22698;DHT22;11516;51.612;7.510;2023-04-25T07:42:03;8.80;99.90
22698;DHT22;11516;51.612;7.510;2023-04-25T07:44:29;9.10;99.90
22698;DHT22;11516;51.612;7.510;2023-04-25T07:46:55;8.90;99.90
22698;DHT22;11516;51.612;7.510;2023-04-25T07:49:21;8.90;99.90
22698;DHT22;11516;51.612;7.510;2023-04-25T07:51:47;8.80;99.90
22698;DHT22;11516;51.612;7.510;2023-04-25T07:54:14;8.70;99.90
22698;DHT22;11516;51.612;7.510;2023-04-25T07:56:41;8.70;99.90
22698;DHT22;11516;51.612;7.510;2023-04-25T07:59:06;8.60;99.90
22698;DHT22;11516;51.612;7.510;2023-04-25T08:01:33;8.50;99.90
22698;DHT22;11516;51.612;7.510;2023-04-25T08:03:59;8.80;99.90
22698;DHT22;11516;51.612;7.510;2023-04-25T08:06:24;8.60;99.90
22698;DHT22;11516;51.612;7.510;2023-04-25T08:08:50;8.70;99.90
22698;DHT22;11516;51.612;7.510;2023-04-25T08:11:16;8.80;99.90
22698;DHT22;11516;51.612;7.510;2023-04-25T08:13:41;8.70;99.90
22698;DHT22;11516;51.612;7.510;2023-04-25T08:16:07;8.70;99.90
22698;DHT22;11516;51.612;7.510;2023-04-25T08:18:33;8.90;99.90
22698;DHT22;11516;51.612;7.510;2023-04-25T08:20:58;9.10;99.90
22698;DHT22;11516;51.612;7.510;2023-04-25T08:23:24;9.00;99.90
22698;DHT22;11516;51.612;7.510;2023-04-25T08:25:49;9.10;99.90
22698;DHT22;11516;51.612;7.510;2023-04-25T08:28:15;9.20;99.90
22698;DHT22;11516;51.612;7.510;2023-04-25T08:30:40;9.40;99.90
22698;DHT22;11516;51.612;7.510;2023-04-25T08:33:06;9.40;99.90
22698;DHT22;11516;51.612;7.510;2023-04-25T08:35:32;9.20;99.90
22698;DHT22;11516;51.612;7.510;2023-04-25T08:37:58;9.40;99.90
22698;DHT22;11516;51.612;7.510;2023-04-25T08:40:27;9.30;99.90
22698;DHT22;11516;51.612;7.510;2023-04-25T08:42:58;9.30;99.90
22698;DHT22;11516;51.612;7.510;2023-04-25T08:45:26;9.40;99.90
22698;DHT22;11516;51.612;7.510;2023-04-25T08:47:53;9.70;99.90
22698;DHT22;11516;51.612;7.510;2023-04-25T08:50:19;9.80;99.90
22698;DHT22;11516;51.612;7.510;2023-04-25T08:52:47;9.80;99.90
22698;DHT22;11516;51.612;7.510;2023-04-25T08:55:15;9.70;99.90
22698;DHT22;11516;51.612;7.510;2023-04-25T08:57:42;9.90;99.90
22698;DHT22;11516;51.612;7.510;2023-04-25T09:00:11;9.80;99.90
22698;DHT22;11516;51.612;7.510;2023-04-25T09:02:39;9.60;99.90
22698;DHT22;11516;51.612;7.510;2023-04-25T09:05:05;9.60;99.90
22698;DHT22;11516;51.612;7.510;2023-04-25T09:07:32;9.80;99.90
22698;DHT22;11516;51.612;7.510;2023-04-25T09:09:58;10.00;99.90
22698;DHT22;11516;51.612;7.510;2023-04-25T09:12:27;9.60;99.90
22698;DHT22;11516;51.612;7.510;2023-04-25T09:15:14;9.60;99.90
22698;DHT22;11516;51.612;7.510;2023-04-25T09:17:41;9.50;99.90
22698;DHT22;11516;51.612;7.510;2023-04-25T09:20:11;9.60;99.90
22698;DHT22;11516;51.612;7.510;2023-04-25T09:22:37;9.60;99.90
22698;DHT22;11516;51.612;7.510;2023-04-25T09:25:12;9.60;99.90
22698;DHT22;11516;51.612;7.510;2023-04-25T09:27:51;9.30;99.90
22698;DHT22;11516;51.612;7.510;2023-04-25T09:30:17;9.40;99.90
22698;DHT22;11516;51.612;7.510;2023-04-25T09:32:43;9.40;99.90
22698;DHT22;11516;51.612;7.510;2023-04-25T09:35:09;9.50;99.90
22698;DHT22;11516;51.612;7.510;2023-04-25T09:37:36;9.50;99.90
22698;DHT22;11516;51.612;7.510;2023-04-25T09:40:06;9.60;99.90
22698;DHT22;11516;51.612;7.510;2023-04-25T09:42:33;9.50;99.90
22698;DHT22;11516;51.612;7.510;2023-04-25T09:45:00;9.70;99.90
22698;DHT22;11516;51.612;7.510;2023-04-25T09:47:27;9.50;99.90
22698;DHT22;11516;51.612;7.510;2023-04-25T09:49:54;9.70;99.90
22698;DHT22;11516;51.612;7.510;2023-04-25T09:52:22;9.90;99.90
22698;DHT22;11516;51.612;7.510;2023-04-25T09:54:49;9.90;99.90
22698;DHT22;11516;51.612;7.510;2023-04-25T09:57:22;10.10;99.90
22698;DHT22;11516;51.612;7.510;2023-04-25T09:59:50;10.50;99.90
22698;DHT22;11516;51.612;7.510;2023-04-25T10:02:27;10.00;99.90
22698;DHT22;11516;51.612;7.510;2023-04-25T10:04:54;10.10;99.90
22698;DHT22;11516;51.612;7.510;2023-04-25T10:07:22;10.40;99.90
22698;DHT22;11516;51.612;7.510;2023-04-25T10:09:58;10.50;99.90
22698;DHT22;11516;51.612;7.510;2023-04-25T10:12:28;10.70;99.90
22698;DHT22;11516;51.612;7.510;2023-04-25T10:14:54;10.60;99.90
22698;DHT22;11516;51.612;7.510;2023-04-25T10:17:20;10.80;99.90
22698;DHT22;11516;51.612;7.510;2023-04-25T10:19:49;10.70;99.90
22698;DHT22;11516;51.612;7.510;2023-04-25T10:22:26;10.50;99.90
22698;DHT22;11516;51.612;7.510;2023-04-25T10:24:55;10.60;99.90
22698;DHT22;11516;51.612;7.510;2023-04-25T10:27:21;10.60;99.90
22698;DHT22;11516;51.612;7.510;2023-04-25T10:30:00;10.40;99.90
22698;DHT22;11516;51.612;7.510;2023-04-25T10:32:26;10.50;99.90
22698;DHT22;11516;51.612;7.510;2023-04-25T10:34:51;10.40;99.90
22698;DHT22;11516;51.612;7.510;2023-04-25T10:37:19;10.50;99.90
22698;DHT22;11516;51.612;7.510;2023-04-25T10:39:44;10.30;99.90
22698;DHT22;11516;51.612;7.510;2023-04-25T10:42:11;10.40;99.90
22698;DHT22;11516;51.612;7.510;2023-04-25T10:44:38;9.90;99.90
22698;DHT22;11516;51.612;7.510;2023-04-25T10:47:06;9.90;99.90
22698;DHT22;11516;51.612;7.510;2023-04-25T10:49:37;10.00;99.90
22698;DHT22;11516;51.612;7.510;2023-04-25T10:52:18;10.10;99.90
22698;DHT22;11516;51.612;7.510;2023-04-25T10:54:57;10.00;99.90
22698;DHT22;11516;51.612;7.510;2023-04-25T10:57:42;9.80;99.90
22698;DHT22;11516;51.612;7.510;2023-04-25T11:00:14;9.50;99.90
22698;DHT22;11516;51.612;7.510;2023-04-25T11:02:46;9.30;99.90
22698;DHT22;11516;51.612;7.510;2023-04-25T11:05:26;9.20;99.90
22698;DHT22;11516;51.612;7.510;2023-04-25T11:07:55;9.10;99.90
22698;DHT22;11516;51.612;7.510;2023-04-25T11:10:29;8.90;99.90
22698;DHT22;11516;51.612;7.510;2023-04-25T11:12:56;9.10;99.90
22698;DHT22;11516;51.612;7.510;2023-04-25T11:15:21;8.90;99.90
22698;DHT22;11516;51.612;7.510;2023-04-25T11:17:47;8.80;99.90
22698;DHT22;11516;51.612;7.510;2023-04-25T11:20:13;9.00;99.90
22698;DHT22;11516;51.612;7.510;2023-04-25T11:22:41;9.00;99.90
22698;DHT22;11516;51.612;7.510;2023-04-25T11:25:08;9.20;99.90
22698;DHT22;11516;51.612;7.510;2023-04-25T11:27:33;9.30;99.90
22698;DHT22;11516;51.612;7.510;2023-04-25T11:30:13;9.30;99.90
22698;DHT22;11516;51.612;7.510;2023-04-25T11:32:39;9.50;99.90
22698;DHT22;11516;51.612;7.510;2023-04-25T11:35:06;9.60;99.90
22698;DHT22;11516;51.612;7.510;2023-04-25T11:37:32;10.00;99.90
22698;DHT22;11516;51.612;7.510;2023-04-25T11:39:59;10.10;99.90
22698;DHT22;11516;51.612;7.510;2023-04-25T11:42:25;10.10;99.90
22698;DHT22;11516;51.612;7.510;2023-04-25T12:49:35;10.70;86.40
22698;DHT22;11516;51.612;7.510;2023-04-25T12:52:00;10.50;90.50
22698;DHT22;11516;51.612;7.510;2023-04-25T12:54:26;10.70;93.40
22698;DHT22;11516;51.612;7.510;2023-04-25T12:56:52;10.60;95.90
22698;DHT22;11516;51.612;7.510;2023-04-25T12:59:17;10.70;97.40
22698;DHT22;11516;51.612;7.510;2023-04-25T13:01:43;11.20;98.80
22698;DHT22;11516;51.612;7.510;2023-04-25T13:04:10;11.20;99.90
22698;DHT22;11516;51.612;7.510;2023-04-25T13:06:36;11.70;99.50
22698;DHT22;11516;51.612;7.510;2023-04-25T13:09:01;11.70;99.00
22698;DHT22;11516;51.612;7.510;2023-04-25T13:11:28;11.90;98.20
22698;DHT22;11516;51.612;7.510;2023-04-25T13:13:54;12.30;97.90
22698;DHT22;11516;51.612;7.510;2023-04-25T13:16:20;12.80;99.20
22698;DHT22;11516;51.612;7.510;2023-04-25T13:18:48;13.30;95.30
22698;DHT22;11516;51.612;7.510;2023-04-25T13:21:14;13.40;92.00
22698;DHT22;11516;51.612;7.510;2023-04-25T13:23:40;13.20;92.20
22698;DHT22;11516;51.612;7.510;2023-04-25T13:26:07;13.60;92.30
22698;DHT22;11516;51.612;7.510;2023-04-25T13:28:32;14.40;92.60
22698;DHT22;11516;51.612;7.510;2023-04-25T13:30:58;14.50;90.80
22698;DHT22;11516;51.612;7.510;2023-04-25T13:33:24;14.50;85.90
22698;DHT22;11516;51.612;7.510;2023-04-25T13:35:51;13.50;90.00
22698;DHT22;11516;51.612;7.510;2023-04-25T13:38:24;12.50;92.20
22698;DHT22;11516;51.612;7.510;2023-04-25T13:40:51;11.10;96.00
22698;DHT22;11516;51.612;7.510;2023-04-25T13:43:21;11.00;97.80
22698;DHT22;11516;51.612;7.510;2023-04-25T13:45:48;10.40;98.50
22698;DHT22;11516;51.612;7.510;2023-04-25T13:48:13;9.70;99.90
22698;DHT22;11516;51.612;7.510;2023-04-25T13:50:39;9.30;99.90
22698;DHT22;11516;51.612;7.510;2023-04-25T13:53:04;9.30;99.90
22698;DHT22;11516;51.612;7.510;2023-04-25T13:55:30;9.00;99.90
22698;DHT22;11516;51.612;7.510;2023-04-25T13:57:56;9.10;99.90
22698;DHT22;11516;51.612;7.510;2023-04-25T14:00:21;9.40;99.90
22698;DHT22;11516;51.612;7.510;2023-04-25T14:02:47;9.60;99.90
22698;DHT22;11516;51.612;7.510;2023-04-25T14:05:13;9.70;99.90
22698;DHT22;11516;51.612;7.510;2023-04-25T14:07:38;10.00;99.90
22698;DHT22;11516;51.612;7.510;2023-04-25T14:10:04;10.40;99.90
22698;DHT22;11516;51.612;7.510;2023-04-25T14:12:30;11.10;99.90
22698;DHT22;11516;51.612;7.510;2023-04-25T14:14:56;11.50;99.90
22698;DHT22;11516;51.612;7.510;2023-04-25T14:17:22;12.10;99.90
22698;DHT22;11516;51.612;7.510;2023-04-25T14:19:47;12.50;97.50
22698;DHT22;11516;51.612;7.510;2023-04-25T14:22:14;12.80;95.40
22698;DHT22;11516;51.612;7.510;2023-04-25T14:24:43;13.00;93.10
22698;DHT22;11516;51.612;7.510;2023-04-25T14:27:08;12.50;91.30
22698;DHT22;11516;51.612;7.510;2023-04-25T14:29:34;12.10;94.40
22698;DHT22;11516;51.612;7.510;2023-04-25T14:32:00;12.20;93.90
22698;DHT22;11516;51.612;7.510;2023-04-25T14:34:26;13.30;91.60
22698;DHT22;11516;51.612;7.510;2023-04-25T14:36:52;14.00;88.50
22698;DHT22;11516;51.612;7.510;2023-04-25T14:39:18;14.20;82.80
22698;DHT22;11516;51.612;7.510;2023-04-25T14:41:44;14.40;85.80
22698;DHT22;11516;51.612;7.510;2023-04-25T14:44:09;14.90;82.90
22698;DHT22;11516;51.612;7.510;2023-04-25T14:46:35;14.30;84.60
22698;DHT22;11516;51.612;7.510;2023-04-25T14:49:01;13.50;86.80
22698;DHT22;11516;51.612;7.510;2023-04-25T14:51:27;12.60;90.50
22698;DHT22;11516;51.612;7.510;2023-04-25T14:53:53;11.40;96.30
22698;DHT22;11516;51.612;7.510;2023-04-25T14:56:19;10.60;99.90
22698;DHT22;11516;51.612;7.510;2023-04-25T14:58:44;10.30;99.90
22698;DHT22;11516;51.612;7.510;2023-04-25T15:01:11;10.10;99.90
22698;DHT22;11516;51.612;7.510;2023-04-25T15:03:38;9.70;99.90
22698;DHT22;11516;51.612;7.510;2023-04-25T15:06:04;9.40;99.90
22698;DHT22;11516;51.612;7.510;2023-04-25T15:08:29;9.20;99.90
22698;DHT22;11516;51.612;7.510;2023-04-25T15:10:55;9.20;99.90
22698;DHT22;11516;51.612;7.510;2023-04-25T15:13:21;9.30;99.90
22698;DHT22;11516;51.612;7.510;2023-04-25T15:15:46;9.30;99.90
22698;DHT22;11516;51.612;7.510;2023-04-25T15:18:22;9.60;99.90
22698;DHT22;11516;51.612;7.510;2023-04-25T15:20:51;9.80;99.90
22698;DHT22;11516;51.612;7.510;2023-04-25T15:23:18;9.70;99.90
22698;DHT22;11516;51.612;7.510;2023-04-25T15:25:45;9.70;99.90
22698;DHT22;11516;51.612;7.510;2023-04-25T15:28:10;9.80;99.90
22698;DHT22;11516;51.612;7.510;2023-04-25T15:30:36;10.00;99.90
22698;DHT22;11516;51.612;7.510;2023-04-25T15:33:02;10.50;99.90
22698;DHT22;11516;51.612;7.510;2023-04-25T15:35:28;10.80;99.90
22698;DHT22;11516;51.612;7.510;2023-04-25T15:37:53;11.50;99.90
22698;DHT22;11516;51.612;7.510;2023-04-25T15:40:19;11.40;99.90
22698;DHT22;11516;51.612;7.510;2023-04-25T15:42:46;10.90;99.90
22698;DHT22;11516;51.612;7.510;2023-04-25T15:45:13;10.40;99.90
22698;DHT22;11516;51.612;7.510;2023-04-25T15:47:40;10.30;99.90
22698;DHT22;11516;51.612;7.510;2023-04-25T15:50:07;10.30;99.90
22698;DHT22;11516;51.612;7.510;2023-04-25T15:52:33;10.40;99.90
22698;DHT22;11516;51.612;7.510;2023-04-25T15:54:59;10.10;99.90
22698;DHT22;11516;51.612;7.510;2023-04-25T15:57:26;9.90;99.90
22698;DHT22;11516;51.612;7.510;2023-04-25T15:59:51;9.80;99.90
22698;DHT22;11516;51.612;7.510;2023-04-25T16:02:17;9.80;99.90
22698;DHT22;11516;51.612;7.510;2023-04-25T16:04:44;9.60;99.90
22698;DHT22;11516;51.612;7.510;2023-04-25T16:07:09;9.70;99.90
22698;DHT22;11516;51.612;7.510;2023-04-25T16:09:35;9.70;99.90
22698;DHT22;11516;51.612;7.510;2023-04-25T16:12:01;9.50;99.90
22698;DHT22;11516;51.612;7.510;2023-04-25T16:14:27;9.40;99.90
22698;DHT22;11516;51.612;7.510;2023-04-25T16:16:53;9.40;99.90
22698;DHT22;11516;51.612;7.510;2023-04-25T16:19:19;9.50;99.90
22698;DHT22;11516;51.612;7.510;2023-04-25T16:21:44;9.60;99.90
22698;DHT22;11516;51.612;7.510;2023-04-25T16:24:11;9.50;99.90
22698;DHT22;11516;51.612;7.510;2023-04-25T16:26:36;9.50;99.90
22698;DHT22;11516;51.612;7.510;2023-04-25T16:29:03;9.50;99.90
22698;DHT22;11516;51.612;7.510;2023-04-25T16:31:29;9.60;99.90
22698;DHT22;11516;51.612;7.510;2023-04-25T16:33:54;9.60;99.90
22698;DHT22;11516;51.612;7.510;2023-04-25T16:36:20;9.70;99.90
22698;DHT22;11516;51.612;7.510;2023-04-25T16:38:46;9.70;99.90
22698;DHT22;11516;51.612;7.510;2023-04-25T16:41:11;9.80;99.90
22698;DHT22;11516;51.612;7.510;2023-04-25T16:43:38;9.70;99.90